Time;durP1;ratioP1;P1;durP2;ratioP2;P2;SDS_P1;SDS_P2;PMS_P1;PMS_P2;Temp;Humidity;BMP_temperature;BMP_pressure;BME280_temperature;BME280_humidity;BME280_pressure;Samples;Min_cycle;Max_cycle;Signal;HPM_P1;HPM_P2
2022/11/26 00:00:52;;;;;;;19.53;5.07;;;;;;;4.01;100.00;101099.06;4997811;28;20369;-67
2022/11/26 00:03:18;;;;;;;17.97;5.43;;;;;;;4.08;100.00;101098.16;5002260;28;20175;-65
2022/11/26 00:05:49;;;;;;;14.47;4.83;;;;;;;4.13;100.00;101106.56;5011383;28;20206;-66
2022/11/26 00:08:26;;;;;;;10.37;4.20;;;;;;;4.03;100.00;101095.66;5022360;28;20316;-67
2022/11/26 00:10:53;;;;;;;17.40;4.70;;;;;;;4.08;100.00;101099.84;5002623;28;20218;-67
2022/11/26 00:13:24;;;;;;;17.37;4.80;;;;;;;3.97;100.00;101105.91;5021232;28;20190;-68
2022/11/26 00:15:51;;;;;;;20.20;4.30;;;;;;;3.79;100.00;101108.66;5013401;28;20420;-67
2022/11/26 00:18:17;;;;;;;11.20;4.57;;;;;;;3.82;100.00;101108.59;5009837;28;20184;-67
2022/11/26 00:20:44;;;;;;;14.67;4.67;;;;;;;3.88;100.00;101108.53;5002913;28;20230;-67
2022/11/26 00:23:21;;;;;;;13.27;4.73;;;;;;;3.78;100.00;101105.22;5017494;28;20288;-67
2022/11/26 00:25:56;;;;;;;16.17;4.40;;;;;;;3.91;100.00;101115.28;5031192;28;20174;-67
2022/11/26 00:28:33;;;;;;;9.67;3.67;;;;;;;3.82;100.00;101124.72;5012836;28;20181;-67
2022/11/26 00:31:10;;;;;;;11.23;4.23;;;;;;;3.84;100.00;101124.69;4993942;28;20240;-67
2022/11/26 00:33:35;;;;;;;14.37;4.20;;;;;;;3.88;100.00;101134.84;5011158;28;20236;-67
2022/11/26 00:36:20;;;;;;;15.53;4.70;;;;;;;3.88;100.00;101139.06;5004854;28;20289;-68
2022/11/26 00:38:52;;;;;;;10.20;3.77;;;;;;;3.80;100.00;101131.53;5027269;28;20178;-68
2022/11/26 00:41:21;;;;;;;9.67;4.43;;;;;;;3.77;100.00;101143.44;5006106;28;20669;-68
2022/11/26 00:43:46;;;;;;;16.57;4.67;;;;;;;3.90;100.00;101139.91;5013843;28;20178;-67
2022/11/26 00:46:13;;;;;;;18.77;4.60;;;;;;;3.92;100.00;101142.44;5015327;28;20193;-67
2022/11/26 00:48:39;;;;;;;14.37;4.97;;;;;;;3.87;100.00;101145.88;5014666;28;20206;-67
2022/11/26 00:51:05;;;;;;;16.17;4.73;;;;;;;3.87;100.00;101145.06;5023304;28;20650;-67
2022/11/26 00:53:30;;;;;;;18.60;4.97;;;;;;;3.88;100.00;101146.72;5028231;28;20189;-67
2022/11/26 00:55:55;;;;;;;16.37;5.03;;;;;;;3.71;100.00;101150.28;5012884;28;20199;-67
2022/11/26 00:58:24;;;;;;;14.50;4.93;;;;;;;3.88;100.00;101147.56;5012849;28;20225;-67
2022/11/26 01:00:50;;;;;;;16.70;4.37;;;;;;;3.91;100.00;101150.94;5011128;28;20232;-67
2022/11/26 01:03:16;;;;;;;15.90;4.50;;;;;;;3.88;100.00;101150.13;5011759;28;20182;-68
2022/11/26 01:05:42;;;;;;;20.30;4.93;;;;;;;3.78;100.00;101158.69;5014880;28;20525;-67
2022/11/26 01:08:25;;;;;;;15.90;5.30;;;;;;;3.66;100.00;101167.28;5014691;28;20187;-67
2022/11/26 01:10:50;;;;;;;13.33;4.33;;;;;;;3.70;100.00;101168.09;5011386;28;20242;-67
2022/11/26 01:13:16;;;;;;;15.00;4.87;;;;;;;3.87;100.00;101173.88;5024065;28;20766;-67
2022/11/26 01:15:41;;;;;;;19.07;4.83;;;;;;;4.07;100.00;101175.41;5014967;28;20194;-67
2022/11/26 01:18:16;;;;;;;15.93;4.60;;;;;;;4.00;100.00;101183.94;5013809;28;20191;-67
2022/11/26 01:20:43;;;;;;;16.83;4.67;;;;;;;4.00;100.00;101182.22;5009273;28;20229;-68
2022/11/26 01:23:11;;;;;;;20.07;5.03;;;;;;;4.10;100.00;101180.44;5013307;28;20317;-67
2022/11/26 01:25:37;;;;;;;16.03;5.37;;;;;;;4.22;100.00;101183.72;5014734;28;20183;-67
2022/11/26 01:28:03;;;;;;;20.07;5.23;;;;;;;4.25;100.00;101186.25;5012623;28;20179;-67
2022/11/26 01:30:32;;;;;;;16.03;5.33;;;;;;;4.22;100.00;101197.31;5005925;28;20254;-67
2022/11/26 01:32:59;;;;;;;22.17;5.20;;;;;;;4.32;100.00;101198.06;5015051;28;20221;-67
2022/11/26 01:35:25;;;;;;;16.80;5.10;;;;;;;4.34;100.00;101197.19;5013231;28;20256;-67
2022/11/26 01:37:50;;;;;;;18.20;5.50;;;;;;;4.42;100.00;101203.91;5013944;28;20187;-67
2022/11/26 01:40:25;;;;;;;16.63;5.50;;;;;;;4.48;100.00;101207.22;5004622;28;20187;-68
2022/11/26 01:43:02;;;;;;;16.70;5.40;;;;;;;4.66;100.00;101211.25;5026627;28;20213;-66
2022/11/26 01:45:28;;;;;;;17.77;4.90;;;;;;;4.75;100.00;101217.94;5013030;28;20548;-66
2022/11/26 01:47:53;;;;;;;12.40;5.10;;;;;;;4.95;100.00;101224.47;5013173;28;20658;-67
2022/11/26 01:51:11;;;;;;;21.83;4.97;;;;;;;4.99;100.00;101226.13;5004017;28;20181;-67
2022/11/26 01:53:41;;;;;;;21.00;5.20;;;;;;;5.15;100.00;101231.88;4999875;28;20195;-67
2022/11/26 01:56:18;;;;;;;17.90;5.00;;;;;;;5.30;100.00;101234.19;5002973;28;20227;-67
2022/11/26 01:58:48;;;;;;;23.10;7.03;;;;;;;5.41;100.00;101235.75;5007241;28;20187;-67
2022/11/26 02:01:14;;;;;;;20.27;5.57;;;;;;;5.40;100.00;101236.63;5014186;28;20227;-67
2022/11/26 02:03:49;;;;;;;19.50;5.13;;;;;;;5.38;100.00;101235.81;5012387;28;20180;-67
2022/11/26 02:06:19;;;;;;;20.77;5.57;;;;;;;5.32;100.00;101239.28;5013876;28;20577;-67
2022/11/26 02:08:45;;;;;;;11.23;4.67;;;;;;;5.37;100.00;101241.78;5012048;28;20636;-67
2022/11/26 02:11:16;;;;;;;16.20;7.17;;;;;;;5.21;100.00;101239.44;5012601;28;20226;-67
2022/11/26 02:13:42;;;;;;;17.97;8.70;;;;;;;5.31;100.00;101241.00;5013082;28;20656;-66
2022/11/26 02:16:42;;;;;;;15.93;5.87;;;;;;;5.07;100.00;101241.34;5009038;28;20239;-67
2022/11/26 02:19:21;;;;;;;18.63;5.00;;;;;;;5.12;100.00;101242.97;5022162;28;20201;-67
2022/11/26 02:21:55;;;;;;;13.87;4.87;;;;;;;5.07;100.00;101254.91;5016148;28;20698;-67
2022/11/26 02:24:45;;;;;;;15.80;4.83;;;;;;;5.05;100.00;101251.56;5009900;28;20182;-67
2022/11/26 02:27:55;;;;;;;17.17;4.87;;;;;;;4.97;100.00;101254.22;5013248;28;20191;-67
2022/11/26 02:30:21;;;;;;;16.17;4.40;;;;;;;5.07;100.00;101257.47;5020381;28;20174;-67
2022/11/26 02:33:31;;;;;;;14.17;4.07;;;;;;;5.09;100.00;101252.38;5012987;28;20265;-67
2022/11/26 02:36:15;;;;;;;10.93;4.53;;;;;;;4.91;100.00;101267.03;4952505;29;20298;-67
2022/11/26 02:38:41;;;;;;;17.20;4.90;;;;;;;4.94;100.00;101268.72;4933340;29;20212;-67
2022/11/26 02:41:06;;;;;;;15.20;4.10;;;;;;;4.83;100.00;101274.75;4940419;28;20765;-67
2022/11/26 02:43:33;;;;;;;18.90;4.07;;;;;;;4.90;100.00;101278.09;4972261;28;20199;-66
2022/11/26 02:46:04;;;;;;;12.43;4.50;;;;;;;4.91;100.00;101277.25;4955528;28;20636;-67
2022/11/26 02:48:37;;;;;;;13.73;4.37;;;;;;;4.80;100.00;101269.72;4970952;28;20549;-67
2022/11/26 02:51:18;;;;;;;17.93;5.03;;;;;;;4.69;100.00;101274.94;4970301;28;20224;-67
2022/11/26 02:53:47;;;;;;;16.33;5.23;;;;;;;4.77;100.00;101279.94;4974675;28;20192;-67
2022/11/26 02:56:20;;;;;;;16.57;4.97;;;;;;;4.71;100.00;101280.00;4971269;28;20649;-67
2022/11/26 02:58:48;;;;;;;16.50;4.67;;;;;;;4.56;100.00;101275.91;4971480;28;20204;-67
2022/11/26 03:01:28;;;;;;;14.27;5.33;;;;;;;4.42;100.00;101278.63;4941498;28;20302;-67
2022/11/26 03:03:57;;;;;;;15.40;5.90;;;;;;;4.43;100.00;101282.00;4950007;28;20187;-67
2022/11/26 03:06:26;;;;;;;15.60;5.00;;;;;;;4.45;100.00;101285.38;4976307;28;20202;-67
2022/11/26 03:08:53;;;;;;;18.50;5.10;;;;;;;4.33;100.00;101283.81;5010927;28;20227;-67
2022/11/26 03:11:19;;;;;;;24.77;5.47;;;;;;;4.17;100.00;101286.47;5014381;28;20303;-67
2022/11/26 03:13:45;;;;;;;14.20;5.20;;;;;;;4.03;100.00;101281.53;5031155;28;20212;-67
2022/11/26 03:16:11;;;;;;;15.17;5.47;;;;;;;4.01;100.00;101283.22;5030625;28;20210;-68
2022/11/26 03:18:36;;;;;;;11.53;3.93;;;;;;;4.03;100.00;101285.75;5031852;28;20204;-67
2022/11/26 03:21:02;;;;;;;12.37;5.73;;;;;;;3.81;100.00;101285.09;5001547;28;20602;-67
2022/11/26 03:23:27;;;;;;;18.47;5.57;;;;;;;3.88;100.00;101279.06;5031762;28;20185;-67
2022/11/26 03:25:52;;;;;;;15.63;5.30;;;;;;;3.74;100.00;101278.38;5012939;28;20273;-67
2022/11/26 03:28:18;;;;;;;20.23;5.10;;;;;;;3.77;100.00;101283.41;5019853;28;20290;-67
2022/11/26 03:30:43;;;;;;;18.93;4.50;;;;;;;3.80;100.00;101283.41;5021422;28;20296;-67
2022/11/26 03:33:08;;;;;;;11.77;4.53;;;;;;;3.70;100.00;101286.00;5031510;28;20559;-67
2022/11/26 03:35:34;;;;;;;18.73;6.00;;;;;;;3.64;100.00;101282.66;5014086;28;20688;-67
2022/11/26 03:37:59;;;;;;;14.83;4.60;;;;;;;3.64;100.00;101288.59;5031454;28;20209;-67
2022/11/26 03:40:24;;;;;;;19.67;5.70;;;;;;;3.53;100.00;101292.91;5021126;28;20236;-67
2022/11/26 03:42:50;;;;;;;16.03;5.10;;;;;;;3.67;100.00;101285.19;5030963;28;20166;-66
2022/11/26 03:45:15;;;;;;;14.53;5.53;;;;;;;3.40;100.00;101279.44;5010945;28;20186;-66
2022/11/26 03:47:40;;;;;;;14.13;4.87;;;;;;;3.32;100.00;101281.16;5031215;28;20177;-66
2022/11/26 03:50:07;;;;;;;16.60;5.00;;;;;;;3.42;100.00;101272.59;5013656;28;20273;-66
2022/11/26 03:52:32;;;;;;;22.60;6.23;;;;;;;3.37;100.00;101269.25;5018961;28;20193;-67
2022/11/26 03:54:57;;;;;;;15.07;5.90;;;;;;;3.17;100.00;101277.00;5031505;28;20201;-67
2022/11/26 03:57:23;;;;;;;20.40;5.97;;;;;;;3.13;100.00;101288.88;5023286;28;20202;-66
2022/11/26 03:59:48;;;;;;;18.13;5.67;;;;;;;3.28;100.00;101282.88;5024773;28;20235;-66
2022/11/26 04:02:13;;;;;;;10.73;5.37;;;;;;;3.31;100.00;101284.53;4987564;28;20249;-66
2022/11/26 04:04:39;;;;;;;15.93;5.50;;;;;;;3.15;100.00;101278.69;5024696;28;20248;-66
2022/11/26 04:07:04;;;;;;;12.87;5.30;;;;;;;3.15;100.00;101278.69;5031148;28;20274;-66
2022/11/26 04:09:30;;;;;;;16.63;5.77;;;;;;;3.13;100.00;101272.78;5031493;28;20304;-67
2022/11/26 04:11:55;;;;;;;19.37;5.80;;;;;;;2.93;100.00;101278.78;5019910;28;20295;-67
2022/11/26 04:14:20;;;;;;;12.73;5.47;;;;;;;2.72;100.00;101278.00;5031136;28;20190;-67
2022/11/26 04:16:45;;;;;;;17.07;5.40;;;;;;;2.62;100.00;101275.50;5019611;28;20234;-67
2022/11/26 04:19:11;;;;;;;15.50;5.17;;;;;;;2.62;100.00;101283.97;5013605;28;20192;-67
2022/11/26 04:21:36;;;;;;;10.83;5.43;;;;;;;2.76;100.00;101285.63;5020378;28;20231;-67
2022/11/26 04:24:02;;;;;;;11.37;5.27;;;;;;;2.81;100.00;101289.00;5031429;28;20235;-67
2022/11/26 04:26:27;;;;;;;16.47;5.93;;;;;;;2.79;100.00;101294.09;5030743;28;20193;-67
2022/11/26 04:28:53;;;;;;;13.30;5.50;;;;;;;2.66;100.00;101297.53;5031587;28;20185;-67
2022/11/26 04:31:18;;;;;;;20.20;5.50;;;;;;;2.76;100.00;101311.88;4997702;28;20689;-67
2022/11/26 04:33:43;;;;;;;18.30;6.47;;;;;;;2.79;100.00;101316.97;5013170;28;20192;-68
2022/11/26 04:36:09;;;;;;;14.03;5.60;;;;;;;2.68;100.00;101317.00;5030659;28;20241;-67
2022/11/26 04:38:36;;;;;;;23.03;7.13;;;;;;;2.85;100.00;101313.56;5009976;28;20642;-67
2022/11/26 04:41:01;;;;;;;15.33;6.23;;;;;;;2.77;100.00;101313.59;5018074;28;20224;-67
2022/11/26 04:43:27;;;;;;;16.47;6.07;;;;;;;2.82;100.00;101319.50;5029566;28;20193;-67
2022/11/26 04:45:52;;;;;;;17.80;5.87;;;;;;;2.73;100.00;101322.06;5030936;28;20517;-67
2022/11/26 04:48:18;;;;;;;16.70;5.20;;;;;;;2.58;100.00;101331.41;5028236;28;20173;-67
2022/11/26 04:50:43;;;;;;;16.97;6.57;;;;;;;2.48;100.00;101323.78;5020289;28;20372;-67
2022/11/26 04:53:09;;;;;;;19.77;6.40;;;;;;;2.60;100.00;101333.94;5030529;28;20498;-67
2022/11/26 04:55:34;;;;;;;13.07;5.80;;;;;;;2.56;100.00;101339.88;5013150;28;20628;-67
2022/11/26 04:57:59;;;;;;;18.50;5.93;;;;;;;2.55;100.00;101343.25;5030597;28;20188;-68
2022/11/26 05:00:25;;;;;;;18.70;5.37;;;;;;;2.57;100.00;101349.19;5020207;28;20228;-68
2022/11/26 05:02:50;;;;;;;16.70;5.93;;;;;;;2.26;100.00;101350.03;5030020;28;20192;-67
2022/11/26 05:05:16;;;;;;;15.43;6.63;;;;;;;2.16;100.00;101355.13;5030587;28;20204;-67
2022/11/26 05:07:41;;;;;;;12.83;5.77;;;;;;;2.28;100.00;101356.81;5030466;28;20197;-67
2022/11/26 05:10:08;;;;;;;18.43;5.93;;;;;;;2.26;100.00;101364.44;5018811;28;20222;-66
2022/11/26 05:12:34;;;;;;;15.47;5.67;;;;;;;2.14;100.00;101372.88;5013050;28;20200;-67
2022/11/26 05:14:59;;;;;;;13.90;5.13;;;;;;;2.19;100.00;101385.59;5030661;28;20665;-67
2022/11/26 05:17:24;;;;;;;15.57;5.53;;;;;;;2.14;100.00;101384.75;5030466;28;20704;-67
2022/11/26 05:19:50;;;;;;;12.80;5.07;;;;;;;2.15;100.00;101397.44;5030546;28;20183;-67
2022/11/26 05:22:15;;;;;;;12.57;4.70;;;;;;;1.94;100.00;101398.25;5003391;28;20229;-66
2022/11/26 05:24:40;;;;;;;15.40;5.47;;;;;;;1.98;100.00;101401.66;5033860;28;20666;-67
2022/11/26 05:27:05;;;;;;;16.97;5.40;;;;;;;2.03;100.00;101408.41;5012913;28;20228;-67
2022/11/26 05:29:32;;;;;;;15.43;6.20;;;;;;;1.98;100.00;101411.78;5032657;28;20187;-67
2022/11/26 05:31:57;;;;;;;18.17;5.10;;;;;;;1.98;100.00;101399.09;5023085;28;20922;-67
2022/11/26 05:34:23;;;;;;;16.27;5.10;;;;;;;1.87;100.00;101404.16;5033701;28;20213;-67
2022/11/26 05:36:48;;;;;;;15.23;5.40;;;;;;;1.91;100.00;101400.75;5033914;28;20219;-67
2022/11/26 05:39:14;;;;;;;9.10;5.17;;;;;;;1.80;100.00;101410.03;5034192;28;20271;-67
2022/11/26 05:41:40;;;;;;;11.97;5.47;;;;;;;1.89;100.00;101412.63;5023165;28;20259;-67
2022/11/26 05:44:05;;;;;;;13.33;6.23;;;;;;;1.80;100.00;101415.97;5029901;28;20205;-68
2022/11/26 05:46:31;;;;;;;11.73;4.87;;;;;;;1.77;100.00;101408.34;5001774;28;20553;-67
2022/11/26 05:48:56;;;;;;;12.50;5.43;;;;;;;1.72;100.00;101410.88;5030933;28;20184;-67
2022/11/26 05:51:21;;;;;;;14.17;6.20;;;;;;;1.67;100.00;101420.16;5002558;28;20279;-67
2022/11/26 05:53:47;;;;;;;17.50;5.40;;;;;;;1.51;100.00;101419.25;5013205;28;20183;-67
2022/11/26 05:56:12;;;;;;;12.07;5.30;;;;;;;1.50;100.00;101420.09;5032229;28;20537;-67
2022/11/26 05:58:38;;;;;;;14.93;6.20;;;;;;;1.49;100.00;101427.69;5033223;28;20680;-67
2022/11/26 06:01:09;;;;;;;14.60;6.07;;;;;;;1.24;100.00;101425.03;5023033;28;20237;-67
2022/11/26 06:03:36;;;;;;;14.87;6.37;;;;;;;1.47;100.00;101426.84;5032804;28;20185;-67
2022/11/26 06:06:02;;;;;;;10.80;6.33;;;;;;;1.55;100.00;101437.84;5032503;28;20725;-67
2022/11/26 06:08:27;;;;;;;13.00;5.87;;;;;;;1.52;100.00;101430.25;5011573;28;20189;-68
2022/11/26 06:10:53;;;;;;;12.60;6.03;;;;;;;1.60;100.00;101431.97;5013743;28;20305;-68
2022/11/26 06:13:18;;;;;;;11.17;6.37;;;;;;;1.60;100.00;101431.13;5032592;28;20626;-68
2022/11/26 06:15:43;;;;;;;11.23;5.97;;;;;;;1.54;100.00;101433.63;5033460;28;20203;-67
2022/11/26 06:18:09;;;;;;;14.50;5.70;;;;;;;1.49;100.00;101441.22;5032435;28;20267;-68
2022/11/26 06:20:36;;;;;;;12.13;6.00;;;;;;;1.26;100.00;101441.09;5023232;28;20303;-68
2022/11/26 06:23:01;;;;;;;14.87;5.87;;;;;;;1.15;100.00;101437.66;5031873;28;20316;-68
2022/11/26 06:25:26;;;;;;;12.73;6.67;;;;;;;1.23;100.00;101436.88;5033373;28;20188;-68
2022/11/26 06:27:52;;;;;;;14.67;6.43;;;;;;;1.26;100.00;101449.53;5031255;28;20191;-68
2022/11/26 06:30:18;;;;;;;15.17;7.03;;;;;;;1.28;100.00;101442.81;5001798;28;20188;-68
2022/11/26 06:32:43;;;;;;;16.30;6.30;;;;;;;1.22;100.00;101450.38;5029285;28;20175;-67
2022/11/26 06:35:09;;;;;;;19.63;6.70;;;;;;;1.24;100.00;101447.84;5032464;28;20209;-68
2022/11/26 06:37:34;;;;;;;13.70;6.20;;;;;;;1.31;100.00;101462.25;5031452;28;20187;-67
2022/11/26 06:39:59;;;;;;;14.93;6.07;;;;;;;1.08;100.00;101462.97;5031526;28;20195;-67
2022/11/26 06:42:25;;;;;;;14.07;5.60;;;;;;;1.19;100.00;101467.25;5013876;28;20294;-68
2022/11/26 06:44:50;;;;;;;13.17;6.43;;;;;;;1.28;100.00;101468.16;5032409;28;20547;-68
2022/11/26 06:47:16;;;;;;;15.30;9.93;;;;;;;1.30;100.00;101470.69;5021991;28;20174;-68
2022/11/26 06:49:41;;;;;;;19.07;11.50;;;;;;;1.26;100.00;101474.91;5014296;28;20184;-68
2022/11/26 06:52:06;;;;;;;16.63;9.43;;;;;;;1.21;100.00;101480.78;5014267;28;20220;-68
2022/11/26 06:54:32;;;;;;;18.90;8.00;;;;;;;1.20;100.00;101489.22;5032028;28;20254;-68
2022/11/26 06:56:57;;;;;;;16.43;7.30;;;;;;;1.26;100.00;101485.03;5013965;28;20197;-68
2022/11/26 06:59:22;;;;;;;11.20;7.10;;;;;;;1.25;100.00;101490.09;5024727;28;20180;-68
2022/11/26 07:01:48;;;;;;;15.40;7.60;;;;;;;1.27;100.00;101493.50;5016597;28;20228;-68
2022/11/26 07:04:13;;;;;;;15.00;6.93;;;;;;;1.32;100.00;101496.91;5027367;28;20197;-68
2022/11/26 07:06:39;;;;;;;11.97;7.03;;;;;;;1.27;100.00;101498.56;5027231;28;20603;-68
2022/11/26 07:09:08;;;;;;;16.27;7.30;;;;;;;1.27;100.00;101506.19;5013799;28;20225;-68
2022/11/26 07:11:34;;;;;;;15.50;8.13;;;;;;;1.22;100.00;101498.53;5004081;28;20696;-68
2022/11/26 07:14:00;;;;;;;13.67;7.53;;;;;;;1.22;100.00;101503.59;5030465;28;20176;-68
2022/11/26 07:16:26;;;;;;;18.67;7.67;;;;;;;1.22;100.00;101507.84;5012814;28;20665;-68
2022/11/26 07:18:53;;;;;;;14.17;6.60;;;;;;;1.17;100.00;101509.50;5030478;28;20179;-68
2022/11/26 07:21:19;;;;;;;13.67;7.10;;;;;;;0.91;100.00;101513.50;5019640;28;20222;-68
2022/11/26 07:23:45;;;;;;;18.37;7.40;;;;;;;0.94;100.00;101511.03;5030260;28;20187;-68
2022/11/26 07:26:15;;;;;;;14.77;7.17;;;;;;;1.10;100.00;101519.59;5029799;28;20174;-68
2022/11/26 07:28:41;;;;;;;14.20;7.10;;;;;;;1.19;100.00;101525.56;5031248;28;20185;-68
2022/11/26 07:31:09;;;;;;;12.00;6.30;;;;;;;1.23;100.00;101522.22;5017752;28;20223;-68
2022/11/26 07:33:34;;;;;;;14.73;6.50;;;;;;;1.38;100.00;101529.91;5030285;28;20186;-68
2022/11/26 07:36:01;;;;;;;14.70;7.07;;;;;;;1.28;100.00;101530.69;5023940;28;20194;-68
2022/11/26 07:38:27;;;;;;;19.10;7.47;;;;;;;1.33;100.00;101533.25;5029297;28;20267;-68
2022/11/26 07:40:53;;;;;;;16.33;7.40;;;;;;;1.49;100.00;101531.66;5008335;28;20226;-69
2022/11/26 07:43:18;;;;;;;12.13;6.33;;;;;;;1.60;100.00;101532.56;5030616;28;20182;-68
2022/11/26 07:45:43;;;;;;;13.33;6.83;;;;;;;1.72;100.00;101531.81;5017398;28;20633;-69
2022/11/26 07:48:09;;;;;;;14.50;7.10;;;;;;;1.71;100.00;101530.97;5026417;28;20235;-69
2022/11/26 07:50:34;;;;;;;14.80;8.83;;;;;;;1.71;100.00;101542.78;5019622;28;20220;-69
2022/11/26 07:52:59;;;;;;;14.93;8.43;;;;;;;1.84;100.00;101546.25;5015241;28;20681;-69
2022/11/26 07:55:25;;;;;;;12.57;8.13;;;;;;;1.92;100.00;101537.81;5004976;28;20201;-69
2022/11/26 07:57:50;;;;;;;18.40;7.90;;;;;;;1.99;100.00;101548.00;5000685;28;20192;-69
2022/11/26 08:00:16;;;;;;;15.57;8.13;;;;;;;2.07;100.00;101547.19;4989747;28;20293;-68
2022/11/26 08:02:41;;;;;;;15.50;8.53;;;;;;;2.14;100.00;101548.06;5014354;28;20197;-69
2022/11/26 08:05:10;;;;;;;15.23;8.60;;;;;;;2.06;100.00;101549.69;5012536;28;20211;-69
2022/11/26 08:07:35;;;;;;;16.37;9.20;;;;;;;1.99;100.00;101543.78;5027579;28;20212;-70
2022/11/26 08:10:02;;;;;;;13.83;7.50;;;;;;;2.27;100.00;101543.88;5018542;28;20236;-70
2022/11/26 08:12:27;;;;;;;17.67;10.40;;;;;;;2.32;100.00;101548.97;5012925;28;20218;-70
2022/11/26 08:14:53;;;;;;;19.67;9.93;;;;;;;2.42;100.00;101546.44;5027017;28;20207;-70
2022/11/26 08:17:18;;;;;;;20.47;10.67;;;;;;;2.48;100.00;101547.31;5018047;28;20236;-69
2022/11/26 08:19:43;;;;;;;16.13;9.77;;;;;;;2.62;100.00;101545.66;5030814;28;20684;-70
2022/11/26 08:22:09;;;;;;;18.27;9.67;;;;;;;2.70;100.00;101543.13;5016996;28;20692;-67
2022/11/26 08:24:34;;;;;;;16.40;9.47;;;;;;;2.80;100.00;101547.34;5030228;28;20259;-69
2022/11/26 08:27:00;;;;;;;14.33;8.77;;;;;;;2.94;100.00;101552.47;5031306;28;20209;-69
2022/11/26 08:29:26;;;;;;;16.63;8.67;;;;;;;3.07;100.00;101555.84;5031643;28;20189;-68
2022/11/26 08:31:52;;;;;;;18.20;8.57;;;;;;;3.20;100.00;101561.78;4995094;28;20548;-68
2022/11/26 08:34:17;;;;;;;15.67;8.20;;;;;;;3.26;100.00;101569.41;5030945;28;20247;-68
2022/11/26 08:36:44;;;;;;;16.30;8.43;;;;;;;3.32;100.00;101568.56;5011667;28;20244;-69
2022/11/26 08:39:17;;;;;;;19.23;8.23;;;;;;;3.43;100.00;101569.38;5009099;28;20187;-68
2022/11/26 08:41:43;;;;;;;18.53;9.03;;;;;;;3.51;100.00;101569.38;4998112;28;20309;-68
2022/11/26 08:44:08;;;;;;;14.70;8.47;;;;;;;3.77;100.00;101565.94;5028856;28;20721;-68
2022/11/26 08:46:36;;;;;;;14.00;7.70;;;;;;;3.71;100.00;101565.09;5012289;28;20279;-68
2022/11/26 08:49:01;;;;;;;20.17;8.37;;;;;;;3.96;100.00;101566.75;5031360;28;20261;-69
2022/11/26 08:51:26;;;;;;;16.83;8.93;;;;;;;4.92;100.00;101569.59;5020643;28;20314;-68
2022/11/26 08:53:51;;;;;;;16.53;8.70;;;;;;;5.73;100.00;101563.78;5031178;28;20186;-68
2022/11/26 08:56:17;;;;;;;13.30;7.43;;;;;;;6.55;100.00;101557.66;5030471;28;20220;-68
2022/11/26 08:58:44;;;;;;;9.20;5.60;;;;;;;8.11;100.00;101551.53;5032828;28;20597;-69
2022/11/26 09:01:15;;;;;;;9.63;5.17;;;;;;;9.29;100.00;101550.53;5023707;28;20237;-66
2022/11/26 09:03:40;;;;;;;9.37;4.83;;;;;;;10.27;100.00;101555.53;5017311;28;20174;-66
2022/11/26 09:06:07;;;;;;;9.03;4.73;;;;;;;10.45;100.00;101561.91;5034600;28;20277;-66
2022/11/26 09:11:21;;;;;;;6.90;3.87;;;;;;;12.57;100.00;101572.63;5023521;28;20276;-66
2022/11/26 09:13:46;;;;;;;11.43;4.70;;;;;;;13.67;96.14;101574.13;5017013;28;20262;-66
2022/11/26 09:16:14;;;;;;;8.33;3.83;;;;;;;14.64;88.17;101566.22;5034186;28;20292;-68
2022/11/26 09:18:40;;;;;;;7.77;4.07;;;;;;;14.26;80.99;101570.66;5034317;28;20704;-66
2022/11/26 09:21:07;;;;;;;5.37;3.33;;;;;;;14.60;83.78;101585.44;5023742;28;20257;-66
2022/11/26 09:23:33;;;;;;;9.37;3.83;;;;;;;14.77;78.99;101587.25;5016420;28;20175;-66
2022/11/26 09:25:58;;;;;;;7.77;3.63;;;;;;;14.77;79.00;101587.25;5034399;28;20200;-66
2022/11/26 09:28:23;;;;;;;11.00;4.27;;;;;;;14.53;84.14;101587.44;5033660;28;20221;-66
2022/11/26 09:30:49;;;;;;;5.60;2.97;;;;;;;14.74;78.46;101584.78;5023315;28;20233;-66
2022/11/26 09:33:14;;;;;;;6.37;3.10;;;;;;;15.59;72.99;101574.53;5016589;28;20196;-66
2022/11/26 09:35:39;;;;;;;6.73;3.30;;;;;;;16.54;64.23;101585.91;5027287;28;20199;-66
2022/11/26 09:38:04;;;;;;;7.27;3.30;;;;;;;17.00;60.00;101582.47;5015644;28;20269;-67
2022/11/26 09:41:03;;;;;;;6.97;3.70;;;;;;;17.82;54.78;101582.81;5021221;28;20688;-67
2022/11/26 09:43:39;;;;;;;6.77;3.80;;;;;;;18.04;51.49;101580.56;5021823;28;20293;-66
2022/11/26 09:46:07;;;;;;;5.97;2.73;;;;;;;17.72;53.88;101583.41;5032668;28;20174;-67
2022/11/26 09:48:33;;;;;;;6.70;2.80;;;;;;;16.87;54.51;101580.56;5033249;28;20243;-66
2022/11/26 09:51:12;;;;;;;7.00;2.90;;;;;;;16.97;55.67;101580.03;5023332;28;20230;-66
2022/11/26 09:53:43;;;;;;;6.13;3.00;;;;;;;16.78;56.01;101571.53;5015008;28;20183;-66
2022/11/26 09:56:15;;;;;;;6.03;3.07;;;;;;;15.63;66.42;101579.47;5032149;28;20290;-66
2022/11/26 09:59:00;;;;;;;8.80;3.37;;;;;;;14.41;76.40;101572.50;5012393;28;20661;-66
2022/11/26 10:01:26;;;;;;;8.50;3.33;;;;;;;13.49;88.28;101577.50;5005158;28;20226;-66
2022/11/26 10:03:55;;;;;;;4.97;2.50;;;;;;;11.88;98.26;101587.22;5015651;28;20228;-67
2022/11/26 10:06:49;;;;;;;7.20;2.93;;;;;;;10.76;100.00;101574.63;5015173;28;20274;-66
2022/11/26 10:09:35;;;;;;;6.90;3.20;;;;;;;9.80;100.00;101590.28;5006463;28;20505;-67
2022/11/26 10:12:16;;;;;;;6.60;3.13;;;;;;;8.93;100.00;101585.66;5005384;28;20680;-67
2022/11/26 10:14:50;;;;;;;8.20;3.00;;;;;;;8.55;100.00;101588.25;5015539;28;20186;-67
2022/11/26 10:17:16;;;;;;;4.50;2.93;;;;;;;7.65;100.00;101592.56;5015277;28;20173;-67
2022/11/26 10:20:03;;;;;;;7.10;3.57;;;;;;;7.53;100.00;101601.31;5033540;28;20177;-67
2022/11/26 10:22:37;;;;;;;7.27;4.07;;;;;;;7.69;100.00;101593.34;4985396;28;20551;-67
2022/11/26 10:25:12;;;;;;;7.67;4.57;;;;;;;7.74;100.00;101594.97;4992959;28;20198;-67
2022/11/26 10:27:38;;;;;;;6.87;3.77;;;;;;;7.56;100.00;101593.56;5007950;28;20186;-67
2022/11/26 10:30:31;;;;;;;7.80;3.60;;;;;;;7.51;100.00;101597.09;5007657;28;20182;-67
2022/11/26 10:33:01;;;;;;;8.07;3.70;;;;;;;7.42;100.00;101595.56;5008419;28;20182;-67
2022/11/26 10:35:28;;;;;;;5.97;3.87;;;;;;;7.46;100.00;101596.34;5026785;28;20646;-67
2022/11/26 10:37:55;;;;;;;6.27;3.23;;;;;;;7.47;100.00;101598.00;5032585;28;20201;-67
2022/11/26 10:40:26;;;;;;;5.53;3.40;;;;;;;7.45;100.00;101604.88;5022372;28;20190;-67
2022/11/26 10:43:20;;;;;;;7.37;3.80;;;;;;;7.41;100.00;101604.94;5019283;28;20333;-67
2022/11/26 10:45:54;;;;;;;4.83;3.20;;;;;;;7.37;100.00;101610.16;5007041;28;20186;-67
2022/11/26 10:48:19;;;;;;;5.67;3.37;;;;;;;7.02;100.00;101606.41;5030843;28;20193;-67
2022/11/26 10:51:02;;;;;;;9.73;3.73;;;;;;;6.70;100.00;101602.63;5020336;28;20627;-67
2022/11/26 10:53:33;;;;;;;5.97;3.73;;;;;;;6.93;100.00;101600.59;5014485;28;20284;-67
2022/11/26 10:56:03;;;;;;;5.77;4.07;;;;;;;7.27;100.00;101602.59;5015050;28;20514;-67
2022/11/26 10:58:32;;;;;;;5.50;3.27;;;;;;;7.36;100.00;101606.72;5013488;28;20197;-67
2022/11/26 11:01:01;;;;;;;5.13;3.50;;;;;;;7.25;100.00;101606.91;5003749;28;20233;-67
2022/11/26 11:03:31;;;;;;;5.23;3.50;;;;;;;7.31;100.00;101600.84;5014517;28;20311;-67
2022/11/26 11:06:31;;;;;;;6.30;3.83;;;;;;;7.41;100.00;101602.38;5014448;28;20653;-67
2022/11/26 11:08:57;;;;;;;4.83;3.30;;;;;;;7.48;100.00;101599.69;4947779;29;20257;-67
2022/11/26 11:11:29;;;;;;;5.93;3.33;;;;;;;6.93;100.00;101595.47;4923128;29;20233;-67
2022/11/26 11:13:55;;;;;;;7.37;3.90;;;;;;;7.04;100.00;101597.84;4932966;29;20213;-67
2022/11/26 11:16:37;;;;;;;7.70;3.53;;;;;;;7.33;100.00;101590.56;4916148;29;20205;-67
2022/11/26 11:19:19;;;;;;;6.20;3.83;;;;;;;7.38;100.00;101591.34;4917285;29;20660;-67
2022/11/26 11:21:44;;;;;;;7.40;4.43;;;;;;;7.25;100.00;101594.09;4905944;29;20311;-67
2022/11/26 11:24:15;;;;;;;9.27;4.03;;;;;;;7.36;100.00;101587.97;4931758;29;20324;-67
2022/11/26 11:26:44;;;;;;;6.80;3.70;;;;;;;7.63;100.00;101575.53;4932207;29;20288;-67
2022/11/26 11:29:27;;;;;;;7.87;3.57;;;;;;;7.39;100.00;101580.22;4915976;29;20607;-67